createdAt,value
2022-10-01T00:09:16.600Z,8.55
2022-10-01T00:19:18.145Z,8.51
2022-10-01T00:29:19.432Z,8.45
2022-10-01T00:39:20.748Z,8.41
2022-10-01T00:49:22.095Z,8.45
2022-10-01T00:59:23.412Z,8.42
2022-10-01T01:09:24.752Z,8.43
2022-10-01T01:19:26.048Z,8.52
2022-10-01T01:29:27.384Z,8.56
2022-10-01T01:39:28.728Z,8.61
2022-10-01T01:49:30.076Z,8.57
2022-10-01T01:59:31.543Z,8.64
2022-10-01T02:09:32.870Z,8.78
2022-10-01T02:19:34.634Z,8.99
2022-10-01T02:29:35.910Z,9.22
2022-10-01T02:39:37.207Z,9.32
2022-10-01T02:49:41.364Z,9.37
2022-10-01T02:59:42.664Z,9.47
2022-10-01T03:09:43.990Z,9.64
2022-10-01T03:19:45.394Z,9.66
2022-10-01T03:29:46.676Z,9.85
2022-10-01T03:39:47.983Z,9.93
2022-10-01T03:49:49.286Z,10.08
2022-10-01T03:59:50.561Z,10.15
2022-10-01T04:09:51.847Z,10.22
2022-10-01T04:19:53.135Z,10.22
2022-10-01T04:29:55.524Z,10.24
2022-10-01T04:39:56.868Z,10.19
2022-10-01T04:49:58.160Z,10.09
2022-10-01T04:59:59.466Z,9.94
2022-10-01T05:10:00.796Z,9.96
2022-10-01T05:20:02.091Z,9.85
2022-10-01T05:30:03.717Z,9.83
2022-10-01T05:40:05.014Z,9.89
2022-10-01T05:50:06.383Z,9.96
2022-10-01T06:00:07.673Z,9.89
2022-10-01T06:10:09.286Z,9.93
2022-10-01T06:20:12.841Z,9.97
2022-10-01T06:30:14.617Z,10.06
2022-10-01T06:40:15.905Z,10.06
2022-10-01T06:50:17.118Z,10.14
2022-10-01T07:00:18.408Z,10.11
2022-10-01T07:10:20.936Z,10.23
2022-10-01T07:20:22.205Z,10.19
2022-10-01T07:30:24.015Z,10.20
2022-10-01T07:40:27.646Z,10.37
2022-10-01T07:50:30.588Z,10.38
2022-10-01T08:00:31.890Z,10.31
2022-10-01T08:10:36.555Z,10.27
2022-10-01T08:20:39.495Z,10.23
2022-10-01T08:30:41.051Z,10.25
2022-10-01T08:40:42.325Z,10.39
2022-10-01T08:50:43.841Z,10.25
2022-10-01T09:00:45.089Z,10.25
2022-10-01T09:10:46.499Z,10.37
2022-10-01T09:20:47.988Z,10.41
2022-10-01T09:30:49.912Z,10.42
2022-10-01T09:40:52.105Z,10.57
2022-10-01T09:50:58.982Z,10.83
2022-10-01T10:01:01.601Z,10.98
2022-10-01T10:11:02.889Z,11.06
2022-10-01T10:21:04.091Z,11.23
2022-10-01T10:31:05.373Z,11.57
2022-10-01T10:41:06.639Z,11.62
2022-10-01T10:51:08.170Z,11.74
2022-10-01T11:01:10.129Z,11.68
2022-10-01T11:11:11.429Z,11.59
2022-10-01T11:21:12.723Z,11.62
2022-10-01T11:31:14.265Z,11.66
2022-10-01T11:41:16.026Z,12.01
2022-10-01T11:51:17.352Z,12.21
2022-10-01T12:01:19.015Z,12.35
2022-10-01T12:11:20.291Z,12.47
2022-10-01T12:21:21.574Z,12.58
2022-10-01T12:31:22.900Z,12.66
2022-10-01T12:41:24.311Z,13.00
2022-10-01T12:51:25.569Z,13.57
2022-10-01T13:01:26.836Z,14.21
2022-10-01T13:11:28.124Z,14.28
2022-10-01T13:21:30.594Z,14.66
2022-10-01T13:31:33.333Z,14.88
2022-10-01T13:41:34.964Z,15.24
2022-10-01T13:51:36.522Z,15.26
2022-10-01T14:01:38.229Z,15.56
2022-10-01T14:11:58.451Z,15.12
2022-10-01T14:21:59.969Z,15.56
2022-10-01T14:32:01.262Z,15.71
2022-10-01T14:42:02.563Z,15.34
2022-10-01T14:52:03.933Z,15.50
2022-10-01T15:02:05.468Z,15.43
2022-10-01T15:12:07.160Z,15.42
2022-10-01T15:22:08.473Z,15.25
2022-10-01T15:32:09.910Z,14.94
2022-10-01T15:42:12.022Z,14.77
2022-10-01T15:52:33.148Z,14.61
2022-10-01T16:02:34.373Z,14.48
2022-10-01T16:12:36.548Z,14.34
2022-10-01T16:22:39.838Z,14.27
2022-10-01T16:32:41.138Z,14.15
2022-10-01T16:42:42.671Z,14.07
2022-10-01T16:52:43.935Z,13.99
2022-10-01T17:02:46.247Z,13.92
2022-10-01T17:12:47.849Z,13.95
2022-10-01T17:22:49.210Z,13.74
2022-10-01T17:32:50.506Z,13.65
2022-10-01T17:42:51.858Z,13.51
2022-10-01T17:52:53.434Z,13.46
2022-10-01T18:02:55.224Z,13.36
2022-10-01T18:12:57.642Z,13.27
2022-10-01T18:22:58.987Z,13.19
2022-10-01T18:33:01.510Z,13.12
2022-10-01T18:43:02.718Z,13.06
2022-10-01T18:53:04.085Z,13.21
2022-10-01T19:03:05.434Z,13.20
2022-10-01T19:13:06.796Z,13.23
2022-10-01T19:23:08.268Z,13.25
2022-10-01T19:33:09.497Z,13.31
2022-10-01T19:43:10.770Z,13.34
2022-10-01T19:53:12.051Z,13.30
2022-10-01T20:03:13.256Z,13.31
2022-10-01T20:13:14.540Z,13.20
2022-10-01T20:23:16.009Z,13.19
2022-10-01T20:33:20.096Z,13.18
2022-10-01T20:43:21.427Z,13.12
2022-10-01T20:53:22.674Z,13.07
2022-10-01T21:03:24.209Z,13.07
2022-10-01T21:13:26.046Z,13.14
2022-10-01T21:23:27.381Z,13.00
2022-10-01T21:33:28.766Z,12.98
2022-10-01T21:43:30.071Z,12.95
2022-10-01T21:53:31.886Z,12.96
2022-10-01T22:03:33.410Z,12.89
2022-10-01T22:13:34.702Z,12.70
2022-10-01T22:23:36.006Z,12.56
2022-10-01T22:33:37.736Z,12.56
2022-10-01T22:43:49.447Z,12.64
2022-10-01T22:53:50.663Z,12.70
2022-10-01T23:03:51.939Z,12.69
2022-10-01T23:13:53.382Z,12.83
2022-10-01T23:23:54.699Z,12.89
2022-10-01T23:33:55.925Z,12.91
2022-10-01T23:43:57.202Z,12.94
2022-10-01T23:53:58.527Z,12.99
